Terminal Aerodrome Forecast
Issued by NWS

Home | Current Version | Previous Version | Text Only | Print | Product List | Glossary On
Versions: 1 2 3 4 5 6 7 8 9 10 11 12 13 14
000
FTUS46 KOTX 091132
TAFCOE
TAF
KCOE 091132Z 0912/1012 02014KT P6SM -SN BKN035 OVC070
     FM091800 03012KT P6SM BKN030 OVC050
     FM100200 03010KT 2SM -SN BKN007 OVC020=

USA.gov is the U.S. government's official web portal to all federal, state and local government web resources and services.